CheckWX is a tool to help pilots better visualize weather data.  It is not intended as a substitute for an official pre-flight weather briefing.

03:16:27 UTC

PLCH METAR
Cassidy International Airport
Banana, Kiribati
Current

16 mins ago

PLCH 180300Z 15003KT 9999 FEW019 29/21 Q1009
Observed
Sep-18 @ 03:00 UTC
Wind
  • 150° at 3 KTS
Visibility
10,000+ meters
Flight Rules
VFR
Cloud Levels
  • Few at 1,900' AGL
Temperature
29°C / 84°F
Dewpoint
21°C / 70°F
Heat Index
31°C / 88°F
Humidity
62%
Altimeter
29.79" Hg
Pressure
1008.92 hPa
Previous

1 hour ago

PLCH 180200Z 00000KT 9999 FEW018TCU SCT020 29/21 Q1009
Observed
Sep-18 @ 02:00 UTC
Visibility
10,000+ meters
Flight Rules
VFR
Cloud Levels
  • Few at 1,800' AGL
  • Scattered at 2,000' AGL
Temperature
29°C / 84°F
Dewpoint
21°C / 70°F
Heat Index
31°C / 88°F
Humidity
62%
Altimeter
29.79" Hg
Pressure
1008.92 hPa
Previous

2 hours ago

PLCH 180100Z 04006KT 9999 FEW018TCU SCT019 29/21 Q1009
Observed
Sep-18 @ 01:00 UTC
Wind
  • 040° at 6 KTS
Visibility
10,000+ meters
Flight Rules
VFR
Cloud Levels
  • Few at 1,800' AGL
  • Scattered at 1,900' AGL
Temperature
29°C / 84°F
Dewpoint
21°C / 70°F
Heat Index
31°C / 88°F
Humidity
62%
Altimeter
29.79" Hg
Pressure
1008.92 hPa